127 км

Карта отелей и гостиниц, располагающихся рядом с аэропортом 127 км :

127 км Красноярский край 69° 22' 33.3588" N, 85° 25' 56.82" E
127 км Красноярский край 69° 22' 33.3588" N, 85° 25' 56.82" E
Код аэродрома ИКАО
HDT4
Код аэродрома RU
ХДТ4
Координаты
N69.37593° E085.43245°
Превышение над уровнем моря
33
Основная полоса
Курс магнитный
Длина основной ВПП
Ширина основной ВПП
Покрытие основной ВПП
Освещение ВПП
Тип: 
Вертодром
Класс аэродрома: 
Принадлежность: 
ГА
Статус: 
Действующий
Сайт: 
E-mail аэродрома: 
Страна: 
Россия
Регион: 
Красноярский край
Город: 
Дополнительная информация: 


Найти трансфер

С помощью этой формы Вы можете найти трансфер из аэропорта 127 км в город, аэропорт или вокзал:

Погода в аэропортах:

Авиационная погода в Богашево

Регион: 
Погода METAR: 
UNTT 291030Z 22002MPS 9999 -RA OVC048 16/11 Q1010 R21/190055 NOSIG RMK QFE742
Время наблюдения
2022-05-29T10:30:00Z
Температура C
16.0
Точка росы
11.0
Направление ветра
220
Скорость ветра (узлы)
4
Метео видимость
6.21
Облачность
OVC
Нижняя граница облачности (футы)
4800
Явления погоды
-RA
Условия полета
VFR
Аэропорт подробнее: 
OVC – сплошная облачность;
-RA - слабый дождь;

Авиационная погода в Куопио

Регион: 
Погода METAR: 
EFKU 291020Z AUTO 21003KT 050V140 9999 VCSH FEW033 //////CB 15/10 Q1004
Время наблюдения
2022-05-29T10:20:00Z
Температура C
15.0
Точка росы
10.0
Направление ветра
210
Скорость ветра (узлы)
3
Метео видимость
6.21
Облачность
FEW
Нижняя граница облачности (футы)
3300
Явления погоды
VCSH
Условия полета
VFR
FEW – незначительная облачность;

Авиационная погода в Миккели

Регион: 
Погода METAR: 
EFMI 291020Z AUTO 19006KT 160V230 9999 -SHRA //////CB 13/10 Q1004
Время наблюдения
2022-05-29T10:20:00Z
Температура C
13.0
Точка росы
10.0
Направление ветра
190
Скорость ветра (узлы)
6
Метео видимость
6.21
Облачность
Нижняя граница облачности (футы)
Явления погоды
-SHRA
Условия полета
-SHRA - слабый ливневой дождь;

Авиационная погода в Москва - Домодедово

Погода METAR: 
UUDD 291030Z 25006G11MPS 170V270 9999 -SHRA BKN050CB 12/05 Q1012 R32L/290045 NOSIG
Время наблюдения
2022-05-29T10:30:00Z
Температура C
12.0
Точка росы
5.0
Направление ветра
250
Скорость ветра (узлы)
12
Метео видимость
6.21
Облачность
BKN
Нижняя граница облачности (футы)
5000
Явления погоды
-SHRA
Условия полета
VFR
Аэропорт подробнее: 
BKN – значительная (рассеянная, разорванная) облачность;
-SHRA - слабый ливневой дождь;